Queen Of Cowichan — CZ4990 — position and weather

sailwx.info

Track history (hours):
 
Tides and Currents Weather Stations Pressure Air Temp Water Temp Dewpoint Dewpoint Depression Visibility Wind Speed Wind Dir Waves Ship Positions

Queen Of Cowichan

Last reported at 2015-May-27 01:15 UTC. Time now 2015-May-27 01:45 UTC.
Position N 49°12' W 123°57'.

Length 139 m; draft 5.5 m.

Type: Passenger vessel. MMSI: 316001251.

Date/timePositionNaut miles runAvg speedWind from/ knotsBaromVisibWave heightAir tempDewpointWater temp
2015-May-27 01:15N 49°12' W 123°57'0 0.0
2015-May-26 21:27N 49°12' W 123°57'0 0.0
2015-May-26 17:33N 49°12' W 123°57'0 0.0
2015-May-26 16:21N 49°12' W 123°57'0 0.0
2015-May-26 14:15N 49°12' W 123°57'0 0.0
2015-May-26 13:27N 49°12' W 123°57'0 0.0
2015-May-26 12:09N 49°12' W 123°57'0 0.0
2015-May-26 11:15N 49°12' W 123°57'0 0.0
2015-May-26 10:33N 49°12' W 123°57'0 0.0
2015-May-26 09:33N 49°12' W 123°57'0 0.0
2015-May-26 08:15N 49°12' W 123°57'0 0.0
2015-May-26 06:33N 49°12' W 123°57'0 0.0
2015-May-26 05:27N 49°12' W 123°57'0 0.0
2015-May-26 04:27N 49°12' W 123°57'0 0.0
2015-May-26 02:33N 49°12' W 123°57'0 0.0
2015-May-26 01:27N 49°12' W 123°57'0 0.0
2015-May-26 00:21N 49°12' W 123°57'0 0.0
2015-May-25 23:15N 49°12' W 123°57'0 0.0
2015-May-25 22:27N 49°12' W 123°57'0 0.1
2015-May-25 21:33N 49°12' W 123°57'1818.4
2015-May-25 20:33N 49°18' W 123°31'1110.7
2015-May-25 19:33N 49°23' W 123°16'1212.1
2015-May-25 18:33N 49°17' W 123°33'1711.7
2015-May-25 17:07N 49°12' W 123°57'1017.3
2015-May-25 16:33N 49°16' W 123°44'1919.2
2015-May-25 15:34N 49°23' W 123°17'6 6.5
2015-May-25 14:33N 49°19' W 123°24'2019.9
2015-May-25 13:33N 49°13' W 123°54'3 0.4
2015-May-25 06:17N 49°12' W 123°57'1115.7
2015-May-25 05:34N 49°17' W 123°42'1817.3
2015-May-25 04:33N 49°23' W 123°16'1111.1
2015-May-25 03:33N 49°17' W 123°31'1812.1
2015-May-25 02:04N 49°12' W 123°57'917.8
2015-May-25 01:33N 49°16' W 123°45'2019.7
2015-May-25 00:34N 49°23' W 123°17'4 4.4
2015-May-24 23:33N 49°20' W 123°21'2019.9
2015-May-24 22:33N 49°14' W 123°50'5 5.2
2015-May-24 21:33N 49°12' W 123°57'1818.7
2015-May-24 20:34N 49°18' W 123°31'1010.2
2015-May-24 19:32N 49°23' W 123°16'1212.7
2015-May-24 18:33N 49°17' W 123°33'1712.0
2015-May-24 17:11N 49°12' W 123°57'1016.9
2015-May-24 16:34N 49°16' W 123°43'11 5.0
2015-May-24 14:27N 49°18' W 123°27'1919.8
2015-May-24 13:28N 49°13' W 123°56'1 0.2
2015-May-24 06:07N 49°12' W 123°57'1219.1
2015-May-24 05:31N 49°17' W 123°41'1716.3
2015-May-24 04:28N 49°23' W 123°16'910.0
2015-May-24 03:33N 49°18' W 123°28'2019.6
2015-May-24 02:33N 49°12' W 123°57'7 6.6
2015-May-24 01:32N 49°15' W 123°48'1919.6
2015-May-24 00:34N 49°21' W 123°20'0 0.3
2015-May-23 23:34N 49°21' W 123°19'2019.4
2015-May-23 22:33N 49°14' W 123°47'7 6.6
2015-May-23 21:29N 49°12' W 123°57'1718.0
2015-May-23 20:34N 49°18' W 123°34'1212.3
2015-May-23 19:33N 49°23' W 123°16'1312.8
2015-May-23 18:33N 49°15' W 123°33'1711.6
2015-May-23 17:08N 49°12' W 123°57'1016.8
2015-May-23 16:34N 49°16' W 123°44'1919.3
2015-May-23 15:34N 49°23' W 123°17'6 6.4
2015-May-23 14:33N 49°19' W 123°24'2019.8
2015-May-23 13:33N 49°13' W 123°53'3 3.2
2015-May-23 12:33N 49°12' W 123°57'0 0.0
2015-May-23 11:28N 49°12' W 123°57'0 0.0
2015-May-23 10:31N 49°12' W 123°57'0 0.0
2015-May-23 09:31N 49°12' W 123°57'0 0.0
2015-May-23 08:31N 49°12' W 123°57'0 0.0
2015-May-23 07:25N 49°12' W 123°57'0 0.0
2015-May-23 06:25N 49°12' W 123°57'1416.7
2015-May-23 05:33N 49°17' W 123°37'1412.9
2015-May-23 04:26N 49°23' W 123°16'1415.8
2015-May-23 03:34N 49°17' W 123°35'1511.4
2015-May-23 02:14N 49°12' W 123°57'1318.9
2015-May-23 01:33N 49°17' W 123°39'1616.0
2015-May-23 00:33N 49°23' W 123°16'8 7.6
2015-May-22 23:33N 49°19' W 123°26'2020.0
2015-May-22 22:33N 49°13' W 123°56'1 0.9
2015-May-22 21:34N 49°12' W 123°57'2019.6
2015-May-22 20:33N 49°19' W 123°28'9 8.7
2015-May-22 19:33N 49°23' W 123°16'1414.3
2015-May-22 18:34N 49°16' W 123°36'1510.5
2015-May-22 17:09N 49°12' W 123°57'1016.8
2015-May-22 16:34N 49°16' W 123°43'1919.1
2015-May-22 15:33N 49°23' W 123°17'6 5.8
2015-May-22 14:33N 49°19' W 123°23'2019.7
2015-May-22 13:33N 49°14' W 123°52'4 0.8
2015-May-22 08:22N 49°12' W 123°57'0 0.0
2015-May-22 07:28N 49°12' W 123°57'0 0.0
2015-May-22 06:16N 49°12' W 123°57'1013.9
2015-May-22 05:33N 49°16' W 123°44'1919.2
2015-May-22 04:33N 49°23' W 123°16'9 9.5
2015-May-22 03:33N 49°18' W 123°29'2018.6
2015-May-22 02:30N 49°12' W 123°57'8 8.3
2015-May-22 01:34N 49°15' W 123°47'2019.6
2015-May-22 00:34N 49°22' W 123°19'3 2.6
2015-May-21 23:33N 49°20' W 123°21'2019.8
2015-May-21 22:33N 49°14' W 123°50'5 4.8
2015-May-21 21:33N 49°12' W 123°57'2019.8
2015-May-21 20:33N 49°18' W 123°28'9 8.4
2015-May-21 19:33N 49°23' W 123°16'1515.3
2015-May-21 18:34N 49°15' W 123°37'14 9.8
2015-May-21 17:08N 49°12' W 123°57'1017.4
2015-May-21 16:33N 49°16' W 123°43'1919.1
2015-May-21 15:33N 49°23' W 123°16'6 6.4
2015-May-21 14:34N 49°19' W 123°24'1919.3
2015-May-21 13:34N 49°14' W 123°52'4 1.7
2015-May-21 11:24N 49°12' W 123°57'0 0.0
2015-May-21 08:17N 49°12' W 123°57'0 0.0
2015-May-21 07:33N 49°12' W 123°57'0 0.0
2015-May-21 06:17N 49°12' W 123°57'1014.1
2015-May-21 05:34N 49°16' W 123°43'1918.6
2015-May-21 04:33N 49°23' W 123°16'9 8.8
2015-May-21 03:33N 49°18' W 123°28'2020.0
2015-May-21 02:33N 49°12' W 123°57'7 7.0
2015-May-21 01:33N 49°15' W 123°47'1919.2
2015-May-21 00:34N 49°21' W 123°19'0 0.3
2015-May-20 23:33N 49°21' W 123°20'1919.4
2015-May-20 22:33N 49°14' W 123°47'7 6.9
2015-May-20 21:33N 49°12' W 123°57'1919.2
2015-May-20 20:33N 49°21' W 123°32'1010.2
2015-May-20 19:33N 49°23' W 123°16'1212.3
2015-May-20 18:33N 49°17' W 123°33'1711.8
2015-May-20 17:08N 49°12' W 123°57'1017.1
2015-May-20 16:33N 49°16' W 123°44'1919.1
2015-May-20 15:33N 49°23' W 123°17'5 5.3
2015-May-20 14:33N 49°19' W 123°22'2020.2
2015-May-20 13:33N 49°14' W 123°52'4 0.5
2015-May-20 06:13N 49°12' W 123°57'1218.1
2015-May-20 05:33N 49°17' W 123°40'1716.1
2015-May-20 04:31N 49°23' W 123°16'1213.0
2015-May-20 03:33N 49°17' W 123°33'1713.2
2015-May-20 02:18N 49°12' W 123°57'1317.1
2015-May-20 01:34N 49°17' W 123°40'1616.1
2015-May-20 00:33N 49°23' W 123°16'7 7.2
2015-May-19 23:33N 49°18' W 123°25'2019.8
2015-May-19 22:33N 49°13' W 123°54'0 0.4
2015-May-19 21:33N 49°13' W 123°54'2020.0
2015-May-19 20:33N 49°19' W 123°25'6 5.8
2015-May-19 19:28N 49°23' W 123°16'1516.0
2015-May-19 18:34N 49°16' W 123°36'1410.2
2015-May-19 17:09N 49°12' W 123°57'1017.4
2015-May-19 16:34N 49°16' W 123°43'1918.6
2015-May-19 15:34N 49°23' W 123°16'9 8.9
2015-May-19 14:33N 49°18' W 123°27'2020.1
2015-May-19 13:33N 49°12' W 123°57'1 0.4
2015-May-19 12:12N 49°12' W 123°57'0 0.0
2015-May-19 09:12N 49°12' W 123°57'0 0.0
2015-May-19 08:12N 49°12' W 123°57'0 0.0
2015-May-19 07:30N 49°12' W 123°57'0 0.0
2015-May-19 06:30N 49°12' W 123°57'1111.3
2015-May-19 05:34N 49°16' W 123°42'1818.0
2015-May-19 04:33N 49°23' W 123°16'9 9.2
2015-May-19 03:33N 49°18' W 123°28'2019.8
2015-May-19 02:33N 49°12' W 123°57'6 6.5
2015-May-19 01:34N 49°15' W 123°48'2019.8
2015-May-19 00:34N 49°21' W 123°20'1 0.8
2015-May-18 23:33N 49°21' W 123°20'1919.5
2015-May-18 22:33N 49°14' W 123°48'6 6.1
2015-May-18 21:32N 49°12' W 123°57'1818.1
2015-May-18 20:34N 49°18' W 123°32'1111.3
2015-May-18 19:33N 49°23' W 123°16'1313.4
2015-May-18 18:33N 49°16' W 123°35'1615.6
2015-May-18 17:33N 49°12' W 123°57'1010.0
2015-May-18 16:34N 49°16' W 123°43'13 6.4
2015-May-18 14:32N 49°19' W 123°24'2019.8
2015-May-18 13:32N 49°13' W 123°53'3 3.3
2015-May-18 12:30N 49°12' W 123°57'9 1.4
2015-May-18 05:33N 49°16' W 123°44'10 5.1
2015-May-18 03:32N 49°18' W 123°29'12 6.2
2015-May-18 01:32N 49°15' W 123°48'13 5.8
2015-May-17 23:14N 49°18' W 123°28'1519.7
2015-May-17 22:30N 49°14' W 123°49'6 6.0
2015-May-17 21:32N 49°12' W 123°57'1717.6
2015-May-17 20:32N 49°18' W 123°32'11 8.7
2015-May-17 19:14N 49°23' W 123°17'1218.3
2015-May-17 18:34N 49°17' W 123°33'1711.6
2015-May-17 17:08N 49°12' W 123°57'1017.8
2015-May-17 16:33N 49°16' W 123°43'1918.8
2015-May-17 15:33N 49°23' W 123°16'6 6.2
2015-May-17 14:34N 49°19' W 123°23'2019.7
2015-May-17 13:33N 49°14' W 123°53'4 0.6
2015-May-17 07:33N 49°12' W 123°57'0 0.0
2015-May-17 06:09N 49°12' W 123°57'1017.1
2015-May-17 05:33N 49°16' W 123°43'1918.3
2015-May-17 04:32N 49°23' W 123°16'9 8.9
2015-May-17 03:33N 49°18' W 123°28'2020.0
2015-May-17 02:33N 49°12' W 123°57'8 8.2
2015-May-17 01:33N 49°16' W 123°46'  
Track history (hours):
 
Tides and Currents Weather Stations Pressure Air Temp Water Temp Dewpoint Dewpoint Depression Visibility Wind Speed Wind Dir Waves Ship Positions

Queen Of Cowichan

Last reported at 2015-May-27 01:15 UTC. Time now 2015-May-27 01:45 UTC.
Position N 49°12' W 123°57'.

Length 139 m; draft 5.5 m.

Type: Passenger vessel. MMSI: 316001251.

Date/timePositionNaut miles runAvg speedWind from/ knotsBaromVisibWave heightAir tempDewpointWater temp
2015-May-27 01:15N 49°12' W 123°57'0 0.0
2015-May-26 21:27N 49°12' W 123°57'0 0.0
2015-May-26 17:33N 49°12' W 123°57'0 0.0
2015-May-26 16:21N 49°12' W 123°57'0 0.0
2015-May-26 14:15N 49°12' W 123°57'0 0.0
2015-May-26 13:27N 49°12' W 123°57'0 0.0
2015-May-26 12:09N 49°12' W 123°57'0 0.0
2015-May-26 11:15N 49°12' W 123°57'0 0.0
2015-May-26 10:33N 49°12' W 123°57'0 0.0
2015-May-26 09:33N 49°12' W 123°57'0 0.0
2015-May-26 08:15N 49°12' W 123°57'0 0.0
2015-May-26 06:33N 49°12' W 123°57'0 0.0
2015-May-26 05:27N 49°12' W 123°57'0 0.0
2015-May-26 04:27N 49°12' W 123°57'0 0.0
2015-May-26 02:33N 49°12' W 123°57'0 0.0
2015-May-26 01:27N 49°12' W 123°57'0 0.0
2015-May-26 00:21N 49°12' W 123°57'0 0.0
2015-May-25 23:15N 49°12' W 123°57'0 0.0
2015-May-25 22:27N 49°12' W 123°57'0 0.1
2015-May-25 21:33N 49°12' W 123°57'1818.4
2015-May-25 20:33N 49°18' W 123°31'1110.7
2015-May-25 19:33N 49°23' W 123°16'1212.1
2015-May-25 18:33N 49°17' W 123°33'1711.7
2015-May-25 17:07N 49°12' W 123°57'1017.3
2015-May-25 16:33N 49°16' W 123°44'1919.2
2015-May-25 15:34N 49°23' W 123°17'6 6.5
2015-May-25 14:33N 49°19' W 123°24'2019.9
2015-May-25 13:33N 49°13' W 123°54'3 0.4
2015-May-25 06:17N 49°12' W 123°57'1115.7
2015-May-25 05:34N 49°17' W 123°42'1817.3
2015-May-25 04:33N 49°23' W 123°16'1111.1
2015-May-25 03:33N 49°17' W 123°31'1812.1
2015-May-25 02:04N 49°12' W 123°57'917.8
2015-May-25 01:33N 49°16' W 123°45'2019.7
2015-May-25 00:34N 49°23' W 123°17'4 4.4
2015-May-24 23:33N 49°20' W 123°21'2019.9
2015-May-24 22:33N 49°14' W 123°50'5 5.2
2015-May-24 21:33N 49°12' W 123°57'1818.7
2015-May-24 20:34N 49°18' W 123°31'1010.2
2015-May-24 19:32N 49°23' W 123°16'1212.7
2015-May-24 18:33N 49°17' W 123°33'1712.0
2015-May-24 17:11N 49°12' W 123°57'1016.9
2015-May-24 16:34N 49°16' W 123°43'11 5.0
2015-May-24 14:27N 49°18' W 123°27'1919.8
2015-May-24 13:28N 49°13' W 123°56'1 0.2
2015-May-24 06:07N 49°12' W 123°57'1219.1
2015-May-24 05:31N 49°17' W 123°41'1716.3
2015-May-24 04:28N 49°23' W 123°16'910.0
2015-May-24 03:33N 49°18' W 123°28'2019.6
2015-May-24 02:33N 49°12' W 123°57'7 6.6
2015-May-24 01:32N 49°15' W 123°48'1919.6
2015-May-24 00:34N 49°21' W 123°20'0 0.3
2015-May-23 23:34N 49°21' W 123°19'2019.4
2015-May-23 22:33N 49°14' W 123°47'7 6.6
2015-May-23 21:29N 49°12' W 123°57'1718.0
2015-May-23 20:34N 49°18' W 123°34'1212.3
2015-May-23 19:33N 49°23' W 123°16'1312.8
2015-May-23 18:33N 49°15' W 123°33'1711.6
2015-May-23 17:08N 49°12' W 123°57'1016.8
2015-May-23 16:34N 49°16' W 123°44'1919.3
2015-May-23 15:34N 49°23' W 123°17'6 6.4
2015-May-23 14:33N 49°19' W 123°24'2019.8
2015-May-23 13:33N 49°13' W 123°53'3 3.2
2015-May-23 12:33N 49°12' W 123°57'0 0.0
2015-May-23 11:28N 49°12' W 123°57'0 0.0
2015-May-23 10:31N 49°12' W 123°57'0 0.0
2015-May-23 09:31N 49°12' W 123°57'0 0.0
2015-May-23 08:31N 49°12' W 123°57'0 0.0
2015-May-23 07:25N 49°12' W 123°57'0 0.0
2015-May-23 06:25N 49°12' W 123°57'1416.7
2015-May-23 05:33N 49°17' W 123°37'1412.9
2015-May-23 04:26N 49°23' W 123°16'1415.8
2015-May-23 03:34N 49°17' W 123°35'1511.4
2015-May-23 02:14N 49°12' W 123°57'1318.9
2015-May-23 01:33N 49°17' W 123°39'1616.0
2015-May-23 00:33N 49°23' W 123°16'8 7.6
2015-May-22 23:33N 49°19' W 123°26'2020.0
2015-May-22 22:33N 49°13' W 123°56'1 0.9
2015-May-22 21:34N 49°12' W 123°57'2019.6
2015-May-22 20:33N 49°19' W 123°28'9 8.7
2015-May-22 19:33N 49°23' W 123°16'1414.3
2015-May-22 18:34N 49°16' W 123°36'1510.5
2015-May-22 17:09N 49°12' W 123°57'1016.8
2015-May-22 16:34N 49°16' W 123°43'1919.1
2015-May-22 15:33N 49°23' W 123°17'6 5.8
2015-May-22 14:33N 49°19' W 123°23'2019.7
2015-May-22 13:33N 49°14' W 123°52'4 0.8
2015-May-22 08:22N 49°12' W 123°57'0 0.0
2015-May-22 07:28N 49°12' W 123°57'0 0.0
2015-May-22 06:16N 49°12' W 123°57'1013.9
2015-May-22 05:33N 49°16' W 123°44'1919.2
2015-May-22 04:33N 49°23' W 123°16'9 9.5
2015-May-22 03:33N 49°18' W 123°29'2018.6
2015-May-22 02:30N 49°12' W 123°57'8 8.3
2015-May-22 01:34N 49°15' W 123°47'2019.6
2015-May-22 00:34N 49°22' W 123°19'3 2.6
2015-May-21 23:33N 49°20' W 123°21'2019.8
2015-May-21 22:33N 49°14' W 123°50'5 4.8
2015-May-21 21:33N 49°12' W 123°57'2019.8
2015-May-21 20:33N 49°18' W 123°28'9 8.4
2015-May-21 19:33N 49°23' W 123°16'1515.3
2015-May-21 18:34N 49°15' W 123°37'14 9.8
2015-May-21 17:08N 49°12' W 123°57'1017.4
2015-May-21 16:33N 49°16' W 123°43'1919.1
2015-May-21 15:33N 49°23' W 123°16'6 6.4
2015-May-21 14:34N 49°19' W 123°24'1919.3
2015-May-21 13:34N 49°14' W 123°52'4 1.7
2015-May-21 11:24N 49°12' W 123°57'0 0.0
2015-May-21 08:17N 49°12' W 123°57'0 0.0
2015-May-21 07:33N 49°12' W 123°57'0 0.0
2015-May-21 06:17N 49°12' W 123°57'1014.1
2015-May-21 05:34N 49°16' W 123°43'1918.6
2015-May-21 04:33N 49°23' W 123°16'9 8.8
2015-May-21 03:33N 49°18' W 123°28'2020.0
2015-May-21 02:33N 49°12' W 123°57'7 7.0
2015-May-21 01:33N 49°15' W 123°47'1919.2
2015-May-21 00:34N 49°21' W 123°19'0 0.3
2015-May-20 23:33N 49°21' W 123°20'1919.4
2015-May-20 22:33N 49°14' W 123°47'7 6.9
2015-May-20 21:33N 49°12' W 123°57'1919.2
2015-May-20 20:33N 49°21' W 123°32'1010.2
2015-May-20 19:33N 49°23' W 123°16'1212.3
2015-May-20 18:33N 49°17' W 123°33'1711.8
2015-May-20 17:08N 49°12' W 123°57'1017.1
2015-May-20 16:33N 49°16' W 123°44'1919.1
2015-May-20 15:33N 49°23' W 123°17'5 5.3
2015-May-20 14:33N 49°19' W 123°22'2020.2
2015-May-20 13:33N 49°14' W 123°52'4 0.5
2015-May-20 06:13N 49°12' W 123°57'1218.1
2015-May-20 05:33N 49°17' W 123°40'1716.1
2015-May-20 04:31N 49°23' W 123°16'1213.0
2015-May-20 03:33N 49°17' W 123°33'1713.2
2015-May-20 02:18N 49°12' W 123°57'1317.1
2015-May-20 01:34N 49°17' W 123°40'1616.1
2015-May-20 00:33N 49°23' W 123°16'7 7.2
2015-May-19 23:33N 49°18' W 123°25'2019.8
2015-May-19 22:33N 49°13' W 123°54'0 0.4
2015-May-19 21:33N 49°13' W 123°54'2020.0
2015-May-19 20:33N 49°19' W 123°25'6 5.8
2015-May-19 19:28N 49°23' W 123°16'1516.0
2015-May-19 18:34N 49°16' W 123°36'1410.2
2015-May-19 17:09N 49°12' W 123°57'1017.4
2015-May-19 16:34N 49°16' W 123°43'1918.6
2015-May-19 15:34N 49°23' W 123°16'9 8.9
2015-May-19 14:33N 49°18' W 123°27'2020.1
2015-May-19 13:33N 49°12' W 123°57'1 0.4
2015-May-19 12:12N 49°12' W 123°57'0 0.0
2015-May-19 09:12N 49°12' W 123°57'0 0.0
2015-May-19 08:12N 49°12' W 123°57'0 0.0
2015-May-19 07:30N 49°12' W 123°57'0 0.0
2015-May-19 06:30N 49°12' W 123°57'1111.3
2015-May-19 05:34N 49°16' W 123°42'1818.0
2015-May-19 04:33N 49°23' W 123°16'9 9.2
2015-May-19 03:33N 49°18' W 123°28'2019.8
2015-May-19 02:33N 49°12' W 123°57'6 6.5
2015-May-19 01:34N 49°15' W 123°48'2019.8
2015-May-19 00:34N 49°21' W 123°20'1 0.8
2015-May-18 23:33N 49°21' W 123°20'1919.5
2015-May-18 22:33N 49°14' W 123°48'6 6.1
2015-May-18 21:32N 49°12' W 123°57'1818.1
2015-May-18 20:34N 49°18' W 123°32'1111.3
2015-May-18 19:33N 49°23' W 123°16'1313.4
2015-May-18 18:33N 49°16' W 123°35'1615.6
2015-May-18 17:33N 49°12' W 123°57'1010.0
2015-May-18 16:34N 49°16' W 123°43'13 6.4
2015-May-18 14:32N 49°19' W 123°24'2019.8
2015-May-18 13:32N 49°13' W 123°53'3 3.3
2015-May-18 12:30N 49°12' W 123°57'9 1.4
2015-May-18 05:33N 49°16' W 123°44'10 5.1
2015-May-18 03:32N 49°18' W 123°29'12 6.2
2015-May-18 01:32N 49°15' W 123°48'13 5.8
2015-May-17 23:14N 49°18' W 123°28'1519.7
2015-May-17 22:30N 49°14' W 123°49'6 6.0
2015-May-17 21:32N 49°12' W 123°57'1717.6
2015-May-17 20:32N 49°18' W 123°32'11 8.7
2015-May-17 19:14N 49°23' W 123°17'1218.3
2015-May-17 18:34N 49°17' W 123°33'1711.6
2015-May-17 17:08N 49°12' W 123°57'1017.8
2015-May-17 16:33N 49°16' W 123°43'1918.8
2015-May-17 15:33N 49°23' W 123°16'6 6.2
2015-May-17 14:34N 49°19' W 123°23'2019.7
2015-May-17 13:33N 49°14' W 123°53'4 0.6
2015-May-17 07:33N 49°12' W 123°57'0 0.0
2015-May-17 06:09N 49°12' W 123°57'1017.1
2015-May-17 05:33N 49°16' W 123°43'1918.3
2015-May-17 04:32N 49°23' W 123°16'9 8.9
2015-May-17 03:33N 49°18' W 123°28'2020.0
2015-May-17 02:33N 49°12' W 123°57'8 8.2
2015-May-17 01:33N 49°16' W 123°46'  

Dump ship's entire track history